Jackson Hole Airport
KJAC : now visible

Airfield :











YOU CAN JOIN US ON...

 
LOGIN :

Register | Disclaimer

   EN    FR    IT 

 









Legend :    VFR   Marginal VFR   IFR   Intensive IFR   Very Intensive IFR
Visi :
Ceiling :
>= 8 km
>= 3000ft
5 to 8 km
1000 to 3000 ft
1500m to 5 km
500 to 1000 ft
800 to 1500m
200 to 500 ft
< 800m
< 200 ft
Symbols :   Thunderstorms  Fog  Heavy snow  Heavy precipitations  Wind > 20 kt






- Airport Elevation : 6451 ft
- IATA code : JAC


KJAC - Jackson Hole

CURRENT METAR :
  • 090856Z AUTO 31005KT 10SM BKN055 M04/M07 A2993 RMK AO2 SLP170 60000 T10441067 51010 FZRANO

EXPIRED METARs :
  • 090756Z AUTO 13003KT 10SM OVC045 M04/M06 A2992 RMK AO2 SLP166 T10441061 FZRANO
  • 090656Z AUTO VRB05KT 10SM OVC049 M03/M06 A2991 RMK AO2 SNE0557B16E28 SLP156 P0000 T10331061 400221033 FZRANO

TAF KJAC
Valid from the 09 at 08:00 until the 10 at 06:00 UTC


090810Z 0908/1006 VRB06KT P6SM BKN050
FM091100 VRB06KT P6SM SCT060 SCT150
FM092100 20005KT P6SM SCT050 BKN100
FM100500 22009KT P6SM VCSH BKN040 AMD LTD TO CLD VIS AND WIND



MET'MAP, your aeronautical weather chart ! - Copyright ORBIFLY December 2007 - Disclaimer

ORBIFLY MET'MAP TEAM :

Programming & Development : Alexandra Zaïnal
Concept & original design : Baudouin d'Aumeries
Assistance for programming : Marc-Olivier Méhu
Technical & hardware support : Manuel Goepfert

Contact : metmap@orbifly.com




SOURCES & CREDITS :

   NOAA       Earth
Advisory